Time;durP1;ratioP1;P1;durP2;ratioP2;P2;SDS_P1;SDS_P2;PMS_P1;PMS_P2;Temp;Humidity;BMP_temperature;BMP_pressure;BME280_temperature;BME280_humidity;BME280_pressure;Samples;Min_cycle;Max_cycle;Signal;HPM_P1;HPM_P2
2023/08/06 00:01:00;;;;;;;9.93;5.68;;;;;;;14.81;100.00;98896.75;12210099;19;20814;-82
2023/08/06 00:05:04;;;;;;;8.63;5.20;;;;;;;14.75;100.00;98895.19;12207216;19;20022;-81
2023/08/06 00:09:06;;;;;;;12.93;6.00;;;;;;;14.69;100.00;98882.50;12195408;19;20010;-82
2023/08/06 00:13:08;;;;;;;15.93;4.90;;;;;;;14.62;100.00;98882.88;12208039;19;20015;-81
2023/08/06 00:17:10;;;;;;;8.63;5.38;;;;;;;14.62;100.00;98882.06;12207198;19;20007;-82
2023/08/06 00:21:15;;;;;;;10.43;6.10;;;;;;;14.68;100.00;98883.66;12187918;19;20011;-83
2023/08/06 00:25:17;;;;;;;11.45;6.00;;;;;;;14.79;100.00;98877.66;12224568;19;20039;-82
2023/08/06 00:29:19;;;;;;;5.78;3.83;;;;;;;14.87;100.00;98867.81;12229583;19;20022;-83
2023/08/06 00:33:24;;;;;;;13.38;6.40;;;;;;;14.97;100.00;98864.06;12199986;19;20010;-82
2023/08/06 00:37:26;;;;;;;7.32;4.75;;;;;;;14.94;100.00;98865.50;12215548;19;20010;-82
2023/08/06 00:41:28;;;;;;;7.22;4.50;;;;;;;14.88;100.00;98844.50;12195297;19;20018;-81
2023/08/06 00:45:34;;;;;;;7.78;4.28;;;;;;;14.89;100.00;98842.56;12214756;19;20024;-81
2023/08/06 00:49:36;;;;;;;8.75;4.95;;;;;;;14.90;100.00;98842.28;12220276;19;20066;-82
2023/08/06 00:53:40;;;;;;;7.88;4.47;;;;;;;14.95;100.00;98836.63;12195319;19;20402;-81
2023/08/06 00:57:42;;;;;;;17.85;6.13;;;;;;;15.01;100.00;98829.84;12217104;19;20006;-82
2023/08/06 01:01:45;;;;;;;7.32;4.00;;;;;;;15.10;100.00;98827.22;12218336;19;20014;-81
2023/08/06 01:05:47;;;;;;;;;;;;;;;15.13;100.00;98818.28;12197424;19;20023;-82
2023/08/06 01:10:11;;;;;;;6.10;4.07;;;;;;;15.19;100.00;98822.63;12222433;19;20049;-81
2023/08/06 01:14:25;;;;;;;7.63;3.95;;;;;;;15.30;100.00;98819.69;12219376;19;20356;-81
2023/08/06 01:18:28;;;;;;;7.32;3.55;;;;;;;15.37;100.00;98818.13;12192293;19;20010;-81
2023/08/06 01:22:31;;;;;;;7.72;4.03;;;;;;;15.41;100.00;98812.81;12217631;19;20018;-81
2023/08/06 01:26:48;;;;;;;7.07;3.03;;;;;;;15.47;100.00;98795.75;12199104;19;20043;-81
2023/08/06 01:30:54;;;;;;;6.03;2.97;;;;;;;15.53;100.00;98802.03;12221669;19;20069;-81
2023/08/06 01:34:59;;;;;;;9.82;3.00;;;;;;;15.59;100.00;98803.56;12203958;19;20014;-82
2023/08/06 01:39:01;;;;;;;5.10;2.53;;;;;;;15.69;100.00;98783.97;12192783;19;20011;-81
2023/08/06 01:43:02;;;;;;;6.60;2.15;;;;;;;15.74;100.00;98788.59;12210386;19;20431;-82
2023/08/06 01:47:04;;;;;;;5.40;2.83;;;;;;;15.82;100.00;98787.84;12211218;19;20010;-82
2023/08/06 01:51:07;;;;;;;5.97;2.55;;;;;;;15.86;100.00;98797.22;12195619;19;20010;-82
2023/08/06 01:55:08;;;;;;;4.90;2.88;;;;;;;15.87;100.00;98798.88;12209251;19;20466;-82
2023/08/06 01:59:11;;;;;;;;;;;;;;;15.87;100.00;98790.53;12216632;19;20082;-82
2023/08/06 02:03:13;;;;;;;6.07;2.55;;;;;;;15.91;100.00;98788.78;12190438;19;19915;-81
2023/08/06 02:07:15;;;;;;;6.03;2.47;;;;;;;15.93;100.00;98782.91;12211705;19;20010;-82
2023/08/06 02:11:18;;;;;;;7.03;2.47;;;;;;;16.00;100.00;98788.03;12220452;19;20492;-82
2023/08/06 02:15:20;;;;;;;5.18;2.90;;;;;;;16.02;100.00;98778.28;12190078;19;20010;-82
2023/08/06 02:19:21;;;;;;;4.63;2.30;;;;;;;16.01;100.00;98759.16;12212480;19;20015;-82
2023/08/06 02:23:23;;;;;;;3.67;2.30;;;;;;;16.04;100.00;98767.69;12224906;19;20311;-82
2023/08/06 02:27:25;;;;;;;5.57;1.87;;;;;;;16.07;100.00;98752.34;12197142;19;20018;-82
2023/08/06 02:31:27;;;;;;;5.63;2.80;;;;;;;16.08;100.00;98745.63;12217198;19;20019;-82
2023/08/06 02:35:29;;;;;;;6.43;2.17;;;;;;;16.07;100.00;98755.13;12193621;19;20035;-82
2023/08/06 02:39:31;;;;;;;4.60;2.60;;;;;;;16.08;100.00;98742.88;12214424;19;20374;-82
2023/08/06 02:43:33;;;;;;;7.10;2.33;;;;;;;16.01;100.00;98734.97;12204726;19;20074;-82
2023/08/06 02:47:35;;;;;;;6.97;2.20;;;;;;;15.88;100.00;98733.00;12190814;19;20010;-83
2023/08/06 02:51:40;;;;;;;4.65;2.38;;;;;;;15.75;100.00;98731.09;12211267;19;20018;-83
2023/08/06 02:55:47;;;;;;;3.88;2.33;;;;;;;15.71;100.00;98736.44;12212535;19;20020;-84
2023/08/06 02:59:53;;;;;;;4.32;2.45;;;;;;;15.64;100.00;98727.66;12187424;19;20018;-84
2023/08/06 03:03:56;;;;;;;7.82;2.80;;;;;;;15.58;100.00;98726.13;12214951;19;20537;-84
2023/08/06 03:08:05;;;;;;;3.83;2.60;;;;;;;15.50;100.00;98717.41;12217568;19;20453;-85
2023/08/06 03:12:09;;;;;;;6.80;2.40;;;;;;;15.49;100.00;98729.63;12195438;19;20037;-84
2023/08/06 03:16:12;;;;;;;6.32;2.60;;;;;;;15.52;100.00;98716.25;12211376;19;20014;-84
2023/08/06 03:20:14;;;;;;;5.27;2.47;;;;;;;15.58;100.00;98717.78;12216145;19;20018;-84
2023/08/06 03:24:16;;;;;;;6.72;2.72;;;;;;;15.60;100.00;98715.53;12195018;19;20011;-85
2023/08/06 03:28:20;;;;;;;4.00;2.60;;;;;;;15.57;100.00;98707.84;12211802;19;20037;-85
2023/08/06 03:32:22;;;;;;;5.60;2.83;;;;;;;15.59;100.00;98703.63;12215214;19;20031;-84
2023/08/06 03:36:25;;;;;;;6.57;2.35;;;;;;;15.58;100.00;98715.84;12187624;19;20014;-84
2023/08/06 03:40:27;;;;;;;5.93;2.27;;;;;;;15.53;100.00;98704.84;12211302;19;20006;-85
2023/08/06 03:44:30;;;;;;;6.05;2.60;;;;;;;15.49;100.00;98699.06;12188966;19;20485;-84
2023/08/06 03:48:32;;;;;;;5.45;2.90;;;;;;;15.58;100.00;98703.91;12212456;19;20011;-85
2023/08/06 03:52:35;;;;;;;5.80;3.08;;;;;;;15.59;100.00;98694.47;12207460;19;20028;-85
2023/08/06 03:56:37;;;;;;;4.00;2.60;;;;;;;15.59;100.00;98694.47;12196067;19;20058;-85
2023/08/06 04:00:39;;;;;;;4.55;2.30;;;;;;;15.61;100.00;98706.88;12246683;19;20247;-84
2023/08/06 04:04:41;;;;;;;7.33;2.93;;;;;;;15.63;100.00;98707.41;12234997;19;20022;-85
2023/08/06 04:08:43;;;;;;;6.10;2.93;;;;;;;15.60;100.00;98708.03;12205037;19;20020;-81
2023/08/06 04:12:45;;;;;;;7.75;3.75;;;;;;;15.47;100.00;98706.91;12230356;19;20472;-81
2023/08/06 04:16:47;;;;;;;6.32;3.45;;;;;;;15.36;100.00;98715.75;12224084;19;20003;-81
2023/08/06 04:20:49;;;;;;;6.30;3.85;;;;;;;15.27;100.00;98701.78;12207521;19;20034;-82
2023/08/06 04:24:51;;;;;;;7.73;3.73;;;;;;;15.18;100.00;98695.28;12228553;19;20015;-83
2023/08/06 04:28:53;;;;;;;5.53;3.40;;;;;;;15.13;100.00;98709.25;12232147;19;20021;-84
2023/08/06 04:32:57;;;;;;;9.15;3.92;;;;;;;15.08;100.00;98701.88;12210276;19;20086;-83
2023/08/06 04:37:01;;;;;;;8.40;3.70;;;;;;;15.03;100.00;98704.72;12224497;19;20017;-84
2023/08/06 04:41:03;;;;;;;8.13;3.93;;;;;;;14.93;100.00;98693.81;12225234;19;20024;-82
2023/08/06 04:45:06;;;;;;;6.70;3.33;;;;;;;14.82;100.00;98699.56;12202914;19;20275;-85
2023/08/06 04:49:08;;;;;;;9.68;3.13;;;;;;;14.77;100.00;98698.81;12230678;19;20041;-86
2023/08/06 04:53:10;;;;;;;12.85;3.15;;;;;;;14.74;100.00;98699.44;12225390;19;20014;-83
2023/08/06 04:57:12;;;;;;;6.97;2.90;;;;;;;14.72;100.00;98696.13;12201022;19;20018;-83
2023/08/06 05:01:14;;;;;;;6.70;2.75;;;;;;;14.72;100.00;98693.34;12222578;19;20010;-83
2023/08/06 05:05:15;;;;;;;7.45;2.90;;;;;;;14.72;100.00;98696.97;12225799;19;20023;-84
2023/08/06 05:09:17;;;;;;;7.00;3.50;;;;;;;14.75;100.00;98689.97;12208404;19;20078;-84
2023/08/06 05:13:19;;;;;;;8.63;2.90;;;;;;;14.74;100.00;98697.47;12234686;19;20034;-84
2023/08/06 05:17:22;;;;;;;7.07;3.00;;;;;;;14.74;100.00;98702.19;12231937;19;20669;-87
2023/08/06 05:21:28;;;;;;;8.90;3.00;;;;;;;14.67;100.00;98702.59;12215471;19;20018;-88
2023/08/06 05:25:30;;;;;;;7.65;2.60;;;;;;;14.62;100.00;98697.13;12233110;19;20018;-84
2023/08/06 05:29:32;;;;;;;4.60;2.80;;;;;;;14.59;100.00;98700.53;12207688;19;20015;-85
2023/08/06 05:33:34;;;;;;;8.23;3.30;;;;;;;14.60;100.00;98702.16;12230364;19;20007;-86
2023/08/06 05:37:35;;;;;;;8.68;3.33;;;;;;;14.64;100.00;98705.16;12230267;19;20014;-86
2023/08/06 05:41:37;;;;;;;11.32;3.78;;;;;;;14.70;100.00;98706.72;12210628;19;20010;-86
2023/08/06 05:45:39;;;;;;;9.25;3.65;;;;;;;14.73;100.00;98703.34;12231029;19;20018;-87
2023/08/06 05:49:41;;;;;;;8.20;3.70;;;;;;;14.78;100.00;98704.06;12229939;19;20038;-85
2023/08/06 05:53:43;;;;;;;7.78;2.95;;;;;;;14.75;100.00;98713.00;12205779;19;20015;-84
2023/08/06 05:57:45;;;;;;;6.20;3.05;;;;;;;14.77;100.00;98713.50;12223046;19;20011;-91
2023/08/06 06:01:47;;;;;;;5.95;3.00;;;;;;;14.75;100.00;98709.38;12229552;19;20006;-87
2023/08/06 06:05:49;;;;;;;7.25;2.70;;;;;;;14.77;100.00;98715.47;12225591;19;20002;-91
2023/08/06 06:09:51;;;;;;;8.07;3.53;;;;;;;14.80;100.00;98709.31;12233458;19;20006;-84
2023/08/06 06:13:52;;;;;;;9.00;3.03;;;;;;;14.87;100.00;98703.34;12224146;19;20018;-85
2023/08/06 06:17:54;;;;;;;5.30;2.58;;;;;;;14.89;100.00;98703.88;12196486;19;20011;-87
2023/08/06 06:21:57;;;;;;;5.43;2.25;;;;;;;14.98;100.00;98711.19;12226162;19;20011;-84
2023/08/06 06:25:59;;;;;;;4.80;1.92;;;;;;;15.04;100.00;98717.47;12225697;19;20014;-86
2023/08/06 06:30:01;;;;;;;8.90;2.20;;;;;;;15.03;100.00;98715.81;12206848;19;20015;-87
2023/08/06 06:34:06;;;;;;;5.95;1.80;;;;;;;15.03;100.00;98721.38;12223708;19;20011;-86
2023/08/06 06:38:08;;;;;;;6.53;2.40;;;;;;;15.05;100.00;98721.91;12218499;19;20011;-86
2023/08/06 06:42:10;;;;;;;4.20;1.53;;;;;;;14.99;100.00;98723.94;12200440;19;20477;-85
2023/08/06 06:46:17;;;;;;;2.58;1.38;;;;;;;15.02;100.00;98714.16;12221900;19;20007;-87
2023/08/06 06:50:19;;;;;;;4.50;1.67;;;;;;;14.95;100.00;98713.75;12231883;19;20018;-89
2023/08/06 06:54:21;;;;;;;4.28;1.50;;;;;;;15.02;100.00;98717.78;12201683;19;20625;-86
2023/08/06 06:58:23;;;;;;;4.18;1.40;;;;;;;15.16;100.00;98714.19;12215003;19;20011;-85
2023/08/06 07:02:25;;;;;;;3.38;1.55;;;;;;;15.22;100.00;98721.28;12214308;19;20010;-90
2023/08/06 07:06:28;;;;;;;;;;;;;;;15.25;100.00;98715.13;12226058;19;20018;-85
2023/08/06 07:10:30;;;;;;;7.43;1.70;;;;;;;15.41;100.00;98710.94;12222122;19;19918;-85
2023/08/06 07:14:31;;;;;;;4.97;1.88;;;;;;;15.62;100.00;98716.06;12193650;19;20010;-85
2023/08/06 07:18:39;;;;;;;4.93;1.80;;;;;;;15.56;100.00;98718.13;12216756;19;20018;-88
2023/08/06 07:22:44;;;;;;;7.95;2.55;;;;;;;15.55;100.00;98719.22;12220432;19;20025;-86
2023/08/06 07:26:46;;;;;;;6.93;2.17;;;;;;;15.50;100.00;98722.13;12195524;19;20004;-87
2023/08/06 07:30:48;;;;;;;7.40;1.98;;;;;;;15.42;100.00;98722.84;12224743;19;20462;-87
2023/08/06 07:34:56;;;;;;;6.27;1.93;;;;;;;15.32;100.00;98725.81;12211838;19;20469;-88
2023/08/06 07:38:58;;;;;;;6.40;2.03;;;;;;;15.22;100.00;98729.59;12192902;19;20236;-86
2023/08/06 07:43:00;;;;;;;8.55;2.70;;;;;;;15.11;100.00;98729.00;12210706;19;20363;-85
2023/08/06 07:47:02;;;;;;;5.00;1.65;;;;;;;15.00;100.00;98736.69;12214022;19;20013;-86
2023/08/06 07:51:19;;;;;;;6.32;2.42;;;;;;;15.01;100.00;98738.31;12205383;19;20007;-87
2023/08/06 07:56:02;;;;;;;5.10;1.88;;;;;;;15.04;100.00;98723.00;12226300;19;20011;-88
2023/08/06 08:00:22;;;;;;;6.25;2.05;;;;;;;15.10;100.00;98727.34;12211168;19;20014;-86
2023/08/06 08:04:24;;;;;;;5.03;1.60;;;;;;;15.20;100.00;98720.75;12215499;19;20014;-87
2023/08/06 08:08:26;;;;;;;4.00;1.80;;;;;;;15.37;100.00;98720.97;12201030;19;20010;-86
2023/08/06 08:12:28;;;;;;;8.25;1.98;;;;;;;15.52;100.00;98721.81;12219967;19;20010;-88
2023/08/06 08:16:30;;;;;;;7.93;2.00;;;;;;;15.54;100.00;98709.25;12214163;19;20361;-86
2023/08/06 08:20:32;;;;;;;6.43;1.80;;;;;;;15.67;100.00;98710.38;12192911;19;20090;-85
2023/08/06 08:24:34;;;;;;;7.35;1.70;;;;;;;15.72;100.00;98711.13;12216037;19;20741;-87
2023/08/06 08:28:36;;;;;;;6.28;2.08;;;;;;;15.85;100.00;98706.69;12212208;19;20056;-86
2023/08/06 08:32:38;;;;;;;4.78;1.27;;;;;;;16.05;100.00;98690.69;12198104;19;20020;-84
2023/08/06 08:36:40;;;;;;;4.95;1.40;;;;;;;16.41;100.00;98688.69;12212079;19;20015;-82
2023/08/06 08:40:49;;;;;;;4.13;1.48;;;;;;;16.87;100.00;98680.38;12215795;19;20007;-82
2023/08/06 08:44:52;;;;;;;3.33;1.50;;;;;;;17.14;100.00;98682.13;12200112;19;20014;-83
2023/08/06 08:48:54;;;;;;;;;;;;;;;17.01;100.00;98683.84;12228991;19;21607;-81
2023/08/06 08:52:56;;;;;;;2.67;0.90;;;;;;;17.34;100.00;98677.94;12228313;19;19911;-84
2023/08/06 08:56:58;;;;;;;2.73;1.20;;;;;;;17.51;100.00;98672.44;12204732;19;20011;-88
2023/08/06 09:01:01;;;;;;;2.93;1.63;;;;;;;17.67;100.00;98679.19;12216301;19;20014;-88
2023/08/06 09:05:04;;;;;;;2.08;1.10;;;;;;;18.09;100.00;98671.25;12213199;19;20003;-87
2023/08/06 09:09:21;;;;;;;1.85;0.88;;;;;;;18.65;100.00;98683.34;12179050;19;20382;-88
2023/08/06 09:13:29;;;;;;;1.08;0.68;;;;;;;18.78;100.00;98673.19;12219903;19;20018;-89
2023/08/06 09:17:41;;;;;;;0.98;0.63;;;;;;;18.67;100.00;98677.44;12194974;19;20080;-89
2023/08/06 09:21:43;;;;;;;1.67;0.57;;;;;;;18.62;100.00;98674.81;12222087;19;20007;-87
2023/08/06 09:25:51;;;;;;;2.25;0.80;;;;;;;18.68;100.00;98674.31;12222886;19;20022;-87
2023/08/06 09:29:53;;;;;;;2.25;0.75;;;;;;;19.06;100.00;98673.56;12198297;19;20529;-86
2023/08/06 09:34:02;;;;;;;2.35;0.93;;;;;;;19.21;100.00;98663.00;12221176;19;20034;-88
2023/08/06 09:38:08;;;;;;;1.10;0.70;;;;;;;19.21;100.00;98663.81;12220377;19;20038;-88
2023/08/06 09:42:10;;;;;;;0.82;0.60;;;;;;;19.00;100.00;98674.91;12194960;19;20014;-87
2023/08/06 09:46:24;;;;;;;4.53;2.70;;;;;;;18.88;100.00;98669.19;12216113;19;20022;-87
2023/08/06 09:50:33;;;;;;;0.88;0.60;;;;;;;18.72;100.00;98668.91;12200004;19;20043;-86
2023/08/06 09:54:37;;;;;;;1.75;0.60;;;;;;;18.95;100.00;98669.53;12214614;19;20390;-88
2023/08/06 09:58:39;;;;;;;0.82;0.70;;;;;;;19.35;100.00;98666.41;12211782;19;19999;-86
2023/08/06 10:02:46;;;;;;;2.15;0.65;;;;;;;19.69;100.00;98665.44;12188925;19;20463;-88
2023/08/06 10:06:48;;;;;;;0.60;0.40;;;;;;;19.67;100.00;98667.75;12212436;19;20007;-86
2023/08/06 10:10:50;;;;;;;2.83;0.50;;;;;;;19.72;100.00;98669.50;12214446;19;20014;-85
2023/08/06 10:14:59;;;;;;;0.82;0.60;;;;;;;19.88;100.00;98676.16;12191678;19;20030;-87
2023/08/06 10:19:07;;;;;;;0.98;0.40;;;;;;;19.31;100.00;98683.03;12208058;19;20564;-84
2023/08/06 10:23:09;;;;;;;4.18;0.50;;;;;;;18.57;100.00;98680.56;12210650;19;20576;-87
2023/08/06 10:27:10;;;;;;;0.70;0.40;;;;;;;17.94;100.00;98683.69;12198290;19;20041;-88
2023/08/06 10:31:12;;;;;;;0.83;0.50;;;;;;;18.18;100.00;98686.00;12220544;19;20010;-87
2023/08/06 10:35:43;;;;;;;1.77;0.30;;;;;;;18.81;100.00;98682.88;12213242;19;20011;-85
2023/08/06 10:39:52;;;;;;;0.50;0.30;;;;;;;18.39;100.00;98699.31;12189563;19;20039;-87
2023/08/06 10:44:10;;;;;;;0.93;0.47;;;;;;;18.18;100.00;98699.13;12143103;19;20010;-85
2023/08/06 10:48:29;;;;;;;1.02;0.38;;;;;;;18.24;100.00;98700.63;12184322;19;20022;-85
2023/08/06 10:52:31;;;;;;;0.50;0.40;;;;;;;18.44;100.00;98696.31;12203977;19;20077;-86
2023/08/06 10:56:42;;;;;;;0.20;0.20;;;;;;;18.75;100.00;98690.59;12183319;19;20003;-87
2023/08/06 11:00:44;;;;;;;0.38;0.30;;;;;;;18.56;100.00;98704.88;12197994;19;20002;-88
2023/08/06 11:04:48;;;;;;;0.50;0.40;;;;;;;18.32;100.00;98716.53;12198587;19;20014;-87
2023/08/06 11:08:52;;;;;;;1.10;0.30;;;;;;;18.37;100.00;98713.56;12190268;19;20022;-88
2023/08/06 11:13:02;;;;;;;0.32;0.28;;;;;;;18.64;100.00;98701.22;12209699;19;20015;-86
2023/08/06 11:17:05;;;;;;;0.30;0.30;;;;;;;18.83;100.00;98711.28;12199039;19;20023;-87
2023/08/06 11:21:07;;;;;;;1.35;0.38;;;;;;;18.94;100.00;98718.13;12175032;19;20014;-86
2023/08/06 11:25:09;;;;;;;0.85;0.28;;;;;;;18.89;100.00;98721.09;12209333;19;20378;-84
2023/08/06 11:29:11;;;;;;;0.43;0.20;;;;;;;19.42;100.00;98744.09;12200410;19;20018;-84
2023/08/06 11:33:13;;;;;;;1.65;0.13;;;;;;;19.29;100.00;98755.16;12188078;19;20362;-83
2023/08/06 11:37:15;;;;;;;0.80;0.20;;;;;;;18.93;100.00;98763.13;12209093;19;20078;-83
2023/08/06 11:41:17;;;;;;;0.15;0.15;;;;;;;18.68;100.00;98763.63;12196647;19;20455;-82
2023/08/06 11:45:24;;;;;;;0.20;0.20;;;;;;;18.29;100.00;98774.91;12178446;19;20011;-84
2023/08/06 11:49:44;;;;;;;1.58;0.30;;;;;;;17.70;100.00;98794.75;12206499;19;20018;-84
2023/08/06 11:53:49;;;;;;;0.60;0.32;;;;;;;17.01;100.00;98795.16;12176166;19;21402;-84
2023/08/06 11:57:51;;;;;;;1.13;0.50;;;;;;;16.46;100.00;98818.44;12206532;19;20033;-86
2023/08/06 12:01:53;;;;;;;1.17;0.40;;;;;;;16.08;100.00;98818.72;12201824;19;20007;-82
2023/08/06 12:05:55;;;;;;;2.47;0.50;;;;;;;16.04;100.00;98816.88;12186651;19;20013;-85
2023/08/06 12:09:58;;;;;;;0.30;0.30;;;;;;;16.17;100.00;98835.47;12208089;19;20508;-85
2023/08/06 12:14:00;;;;;;;0.70;0.40;;;;;;;16.17;100.00;98829.91;12203606;19;20461;-84
2023/08/06 12:18:02;;;;;;;0.70;0.40;;;;;;;16.21;100.00;98844.00;12177461;19;20045;-84
2023/08/06 12:22:04;;;;;;;1.63;0.60;;;;;;;16.16;100.00;98842.19;12208503;19;20458;-84
2023/08/06 12:26:06;;;;;;;2.88;0.60;;;;;;;16.10;100.00;98848.97;12213307;19;20020;-84
2023/08/06 12:30:09;;;;;;;1.08;0.40;;;;;;;15.94;100.00;98856.78;12194359;19;20006;-86
2023/08/06 12:34:11;;;;;;;0.63;0.50;;;;;;;15.85;100.00;98862.22;12215998;19;20042;-84
2023/08/06 12:38:14;;;;;;;1.58;0.68;;;;;;;15.80;100.00;98867.09;12216721;19;20601;-84
2023/08/06 12:42:15;;;;;;;1.70;0.75;;;;;;;15.78;100.00;98870.16;12197241;19;20158;-84
2023/08/06 12:46:17;;;;;;;0.57;0.50;;;;;;;15.65;100.00;98884.84;12216129;19;20069;-85
2023/08/06 12:50:19;;;;;;;0.95;0.55;;;;;;;15.54;100.00;98888.91;12219970;19;20029;-86
2023/08/06 12:54:21;;;;;;;2.75;0.70;;;;;;;15.48;100.00;98889.00;12203365;19;20011;-84
2023/08/06 12:58:24;;;;;;;1.35;1.25;;;;;;;15.49;100.00;98896.19;12220051;19;20082;-85
2023/08/06 13:02:29;;;;;;;0.90;0.60;;;;;;;15.58;100.00;98903.84;12220008;19;20029;-86
2023/08/06 13:06:35;;;;;;;1.08;0.68;;;;;;;15.63;100.00;98923.19;12217215;19;20038;-83
2023/08/06 13:10:37;;;;;;;3.00;0.80;;;;;;;15.61;100.00;98917.09;12219125;19;20025;-83
2023/08/06 13:14:39;;;;;;;5.15;1.05;;;;;;;15.68;100.00;98923.13;12191465;19;20006;-84
2023/08/06 13:18:41;;;;;;;2.83;0.77;;;;;;;15.79;100.00;98932.09;12207676;19;20012;-84
2023/08/06 13:22:44;;;;;;;2.17;0.80;;;;;;;15.90;100.00;98931.59;12217382;19;20915;-84
2023/08/06 13:26:46;;;;;;;3.80;1.08;;;;;;;15.99;100.00;98939.22;12201619;19;20386;-87
2023/08/06 13:30:48;;;;;;;3.10;0.77;;;;;;;15.99;100.00;98945.59;12224891;19;20015;-85
2023/08/06 13:34:50;;;;;;;1.75;0.70;;;;;;;15.89;100.00;98943.84;12224525;19;20010;-85
2023/08/06 13:38:52;;;;;;;2.33;0.82;;;;;;;15.86;100.00;98961.13;12186851;19;20023;-86
2023/08/06 13:42:54;;;;;;;1.58;0.60;;;;;;;15.87;100.00;98962.78;12212101;19;20002;-87
2023/08/06 13:46:56;;;;;;;0.77;0.50;;;;;;;15.90;100.00;98967.72;12203720;19;20010;-86
2023/08/06 13:50:58;;;;;;;1.73;0.47;;;;;;;15.84;100.00;98987.56;12195233;19;20477;-84
2023/08/06 13:55:00;;;;;;;4.68;0.40;;;;;;;15.80;100.00;98989.31;12224728;19;20363;-83
2023/08/06 13:59:02;;;;;;;0.75;0.35;;;;;;;15.98;100.00;98984.84;12213252;19;20483;-84
2023/08/06 14:03:04;;;;;;;0.80;0.40;;;;;;;16.13;100.00;98987.31;12193304;19;20014;-85
2023/08/06 14:07:06;;;;;;;1.60;0.40;;;;;;;16.33;100.00;98992.50;12217261;19;20010;-84
2023/08/06 14:11:08;;;;;;;1.00;0.30;;;;;;;16.32;100.00;99009.47;12201805;19;20011;-83
2023/08/06 14:15:11;;;;;;;0.33;0.30;;;;;;;16.43;100.00;99001.75;12186787;19;20021;-84
2023/08/06 14:19:12;;;;;;;;;;;;;;;16.67;100.00;99015.47;12200169;19;20334;-84
2023/08/06 14:23:14;;;;;;;0.57;0.40;;;;;;;16.90;100.00;99022.81;12209493;19;19986;-84
2023/08/06 14:27:16;;;;;;;1.52;0.50;;;;;;;16.90;100.00;99021.97;12203047;19;20006;-84
2023/08/06 14:31:18;;;;;;;2.13;0.50;;;;;;;16.70;100.00;99029.56;12203164;19;20010;-83
2023/08/06 14:35:19;;;;;;;2.25;0.47;;;;;;;16.76;100.00;99027.53;12205291;19;20010;-83
2023/08/06 14:39:21;;;;;;;0.68;0.38;;;;;;;16.83;100.00;99037.09;12179269;19;20010;-83
2023/08/06 14:43:24;;;;;;;3.58;0.98;;;;;;;16.75;100.00;99046.16;12201168;19;20017;-83
2023/08/06 14:47:25;;;;;;;2.05;0.60;;;;;;;16.62;100.00;99058.91;12215204;19;20449;-83
2023/08/06 14:51:28;;;;;;;0.32;0.30;;;;;;;16.61;100.00;99048.94;12207391;19;20007;-83
2023/08/06 14:55:29;;;;;;;0.63;0.50;;;;;;;16.64;100.00;99058.63;12207287;19;20090;-82
2023/08/06 14:59:32;;;;;;;0.93;0.30;;;;;;;16.66;100.00;99067.50;12180952;19;20023;-84
2023/08/06 15:03:34;;;;;;;0.60;0.40;;;;;;;16.53;100.00;99065.50;12209579;19;20011;-86
2023/08/06 15:07:37;;;;;;;0.57;0.35;;;;;;;16.39;100.00;99068.28;12206030;19;20027;-82
2023/08/06 15:11:38;;;;;;;;;;;;;;;16.11;100.00;99065.44;12193004;19;20094;-85
2023/08/06 15:15:42;;;;;;;1.25;0.35;;;;;;;16.07;100.00;99075.50;12199971;19;19978;-84
2023/08/06 15:19:44;;;;;;;1.85;0.50;;;;;;;16.06;100.00;99073.88;12202571;19;20013;-84
2023/08/06 15:23:46;;;;;;;0.35;0.30;;;;;;;16.03;100.00;99080.03;12182953;19;20003;-84
2023/08/06 15:27:48;;;;;;;0.68;0.40;;;;;;;15.99;100.00;99078.97;12198945;19;20014;-84
2023/08/06 15:31:50;;;;;;;2.55;0.80;;;;;;;16.02;100.00;99103.38;12202959;19;20015;-83
2023/08/06 15:35:55;;;;;;;0.47;0.40;;;;;;;16.07;100.00;99096.94;12183090;19;20691;-87
2023/08/06 15:39:56;;;;;;;0.90;0.30;;;;;;;15.99;100.00;99108.72;12204758;19;20011;-87
2023/08/06 15:43:58;;;;;;;0.88;0.43;;;;;;;15.87;100.00;99112.78;12190172;19;20019;-87
2023/08/06 15:48:00;;;;;;;1.20;0.32;;;;;;;15.79;100.00;99110.69;12176178;19;20014;-87
2023/08/06 15:52:02;;;;;;;0.40;0.30;;;;;;;15.64;100.00;99133.09;12208307;19;20010;-83
2023/08/06 15:56:05;;;;;;;0.53;0.40;;;;;;;15.52;100.00;99127.19;12224548;19;20015;-87
2023/08/06 16:00:08;;;;;;;1.33;0.43;;;;;;;15.43;100.00;99136.16;12186398;19;20010;-88
2023/08/06 16:04:13;;;;;;;0.77;0.40;;;;;;;15.41;100.00;99126.50;12219419;19;20010;-87
2023/08/06 16:08:14;;;;;;;1.20;0.40;;;;;;;15.33;100.00;99135.50;12217430;19;20026;-87
2023/08/06 16:12:31;;;;;;;1.33;0.50;;;;;;;15.25;100.00;99146.13;12195392;19;20034;-87
2023/08/06 16:16:36;;;;;;;1.75;0.50;;;;;;;15.18;100.00;99142.88;12209202;19;20014;-88
2023/08/06 16:20:46;;;;;;;0.65;0.30;;;;;;;15.13;100.00;99142.94;12199970;19;20089;-86
2023/08/06 16:24:58;;;;;;;0.32;0.30;;;;;;;14.97;100.00;99158.13;12202895;19;20006;-87
2023/08/06 16:29:00;;;;;;;0.98;0.40;;;;;;;14.85;100.00;99158.53;12216461;19;20007;-87
2023/08/06 16:33:02;;;;;;;1.70;0.40;;;;;;;14.74;100.00;99152.25;12187837;19;20078;-84
2023/08/06 16:37:04;;;;;;;2.47;0.40;;;;;;;14.65;100.00;99156.78;12206460;19;20010;-84
2023/08/06 16:41:06;;;;;;;4.73;0.60;;;;;;;14.59;100.00;99167.09;12208592;19;20724;-84
2023/08/06 16:45:08;;;;;;;2.53;0.43;;;;;;;14.54;100.00;99169.91;12196243;19;20018;-83
2023/08/06 16:49:12;;;;;;;1.67;0.60;;;;;;;14.52;100.00;99176.91;12212502;19;20011;-83
2023/08/06 16:53:14;;;;;;;1.15;0.52;;;;;;;14.46;100.00;99176.09;12222358;19;20022;-85
2023/08/06 16:57:16;;;;;;;3.97;0.52;;;;;;;14.45;100.00;99179.94;12172282;19;20393;-85
2023/08/06 17:01:18;;;;;;;1.15;0.40;;;;;;;14.43;100.00;99176.66;12211252;19;20015;-84
2023/08/06 17:05:20;;;;;;;2.53;0.68;;;;;;;14.45;100.00;99177.19;12213012;19;20018;-85
2023/08/06 17:09:22;;;;;;;2.15;0.68;;;;;;;14.50;100.00;99185.47;12181888;19;20009;-84
2023/08/06 17:13:25;;;;;;;1.20;0.60;;;;;;;14.54;100.00;99182.97;12216744;19;20007;-84
2023/08/06 17:17:26;;;;;;;0.57;0.40;;;;;;;14.44;100.00;99196.91;12196323;19;20369;-86
2023/08/06 17:21:29;;;;;;;1.02;0.50;;;;;;;14.32;100.00;99197.25;12227582;19;20014;-84
2023/08/06 17:25:31;;;;;;;2.30;0.93;;;;;;;14.34;100.00;99195.03;12201665;19;20734;-84
2023/08/06 17:29:33;;;;;;;0.77;0.52;;;;;;;14.26;100.00;99192.88;12189670;19;20474;-85
2023/08/06 17:33:35;;;;;;;3.03;0.73;;;;;;;14.25;100.00;99199.56;12218323;19;20078;-83
2023/08/06 17:37:37;;;;;;;2.53;0.95;;;;;;;14.20;100.00;99197.63;12202993;19;20362;-84
2023/08/06 17:41:40;;;;;;;2.83;0.80;;;;;;;14.14;100.00;99205.16;12180456;19;20477;-84
2023/08/06 17:45:49;;;;;;;3.20;0.70;;;;;;;14.10;100.00;99198.53;12216004;19;20014;-84
2023/08/06 17:49:59;;;;;;;2.80;0.85;;;;;;;14.07;100.00;99201.06;12208547;19;20003;-85
2023/08/06 17:54:01;;;;;;;2.63;0.80;;;;;;;13.97;100.00;99213.03;12198564;19;20014;-84
2023/08/06 17:58:05;;;;;;;1.85;0.70;;;;;;;13.93;100.00;99220.25;12201608;19;20765;-84
2023/08/06 18:02:07;;;;;;;1.52;0.70;;;;;;;13.88;100.00;99218.34;12209591;19;20107;-85
2023/08/06 18:06:08;;;;;;;0.98;0.50;;;;;;;13.80;100.00;99218.97;12188699;19;20017;-84
2023/08/06 18:10:11;;;;;;;3.00;0.60;;;;;;;13.76;100.00;99220.63;12201871;19;20379;-84
2023/08/06 18:14:13;;;;;;;2.35;0.70;;;;;;;13.74;100.00;99222.88;12214893;19;20010;-84
2023/08/06 18:18:14;;;;;;;1.77;0.40;;;;;;;13.67;100.00;99219.56;12182844;19;20049;-84
2023/08/06 18:22:16;;;;;;;2.42;0.80;;;;;;;13.74;100.00;99230.31;12211655;19;20011;-84
2023/08/06 18:26:18;;;;;;;1.85;0.60;;;;;;;13.69;100.00;99225.66;12206526;19;20687;-84
2023/08/06 18:30:20;;;;;;;0.82;0.60;;;;;;;13.71;100.00;99240.03;12188792;19;20364;-85
2023/08/06 18:34:21;;;;;;;0.73;0.40;;;;;;;13.72;100.00;99241.69;12218706;19;20031;-84
2023/08/06 18:38:26;;;;;;;1.35;0.32;;;;;;;13.59;100.00;99243.16;12203370;19;21306;-83
2023/08/06 18:42:28;;;;;;;2.63;0.50;;;;;;;13.66;100.00;99240.06;12183421;19;20035;-84